sensor_id;sensor_type;location;lat;lon;timestamp;pressure;altitude;pressure_sealevel;temperature;humidity
48555;BME280;34336;48.270;16.716;2022-12-05T00:00:26;77162.63;;;18.16;100.00
48555;BME280;34336;48.270;16.716;2022-12-05T00:02:53;77153.00;;;18.16;100.00
48555;BME280;34336;48.270;16.716;2022-12-05T00:05:20;77153.00;;;18.16;100.00
48555;BME280;34336;48.270;16.716;2022-12-05T00:07:47;77154.91;;;18.16;100.00
48555;BME280;34336;48.270;16.716;2022-12-05T00:10:13;77145.28;;;18.16;100.00
48555;BME280;34336;48.270;16.716;2022-12-05T00:12:40;77147.22;;;18.16;100.00
48555;BME280;34336;48.270;16.716;2022-12-05T00:15:07;77151.06;;;18.16;100.00
48555;BME280;34336;48.270;16.716;2022-12-05T00:17:38;77154.91;;;18.16;100.00
48555;BME280;34336;48.270;16.716;2022-12-05T00:20:06;77156.84;;;18.16;100.00
48555;BME280;34336;48.270;16.716;2022-12-05T00:22:36;77145.28;;;18.16;100.00
48555;BME280;34336;48.270;16.716;2022-12-05T00:25:04;77137.56;;;18.16;100.00
48555;BME280;34336;48.270;16.716;2022-12-05T00:27:31;77149.13;;;18.16;100.00
48555;BME280;34336;48.270;16.716;2022-12-05T00:29:58;77141.44;;;18.16;100.00
48555;BME280;34336;48.270;16.716;2022-12-05T00:32:27;77145.28;;;18.16;100.00
48555;BME280;34336;48.270;16.716;2022-12-05T00:34:53;77141.44;;;18.16;100.00
48555;BME280;34336;48.270;16.716;2022-12-05T00:37:20;77145.28;;;18.16;100.00
48555;BME280;34336;48.270;16.716;2022-12-05T00:39:47;77153.00;;;18.16;100.00
48555;BME280;34336;48.270;16.716;2022-12-05T00:42:14;77154.91;;;18.16;100.00
48555;BME280;34336;48.270;16.716;2022-12-05T00:44:41;77145.28;;;18.16;100.00
48555;BME280;34336;48.270;16.716;2022-12-05T00:47:07;77149.13;;;18.16;100.00
48555;BME280;34336;48.270;16.716;2022-12-05T00:49:34;77145.28;;;18.16;100.00
48555;BME280;34336;48.270;16.716;2022-12-05T00:52:01;77151.06;;;18.16;100.00
48555;BME280;34336;48.270;16.716;2022-12-05T00:54:27;77153.00;;;18.16;100.00
48555;BME280;34336;48.270;16.716;2022-12-05T00:56:54;77147.22;;;18.16;100.00
48555;BME280;34336;48.270;16.716;2022-12-05T00:59:21;77151.06;;;18.16;100.00
48555;BME280;34336;48.270;16.716;2022-12-05T01:01:49;77145.28;;;18.16;100.00
48555;BME280;34336;48.270;16.716;2022-12-05T01:04:20;77145.28;;;18.16;100.00
48555;BME280;34336;48.270;16.716;2022-12-05T01:06:46;77151.06;;;18.16;100.00
48555;BME280;34336;48.270;16.716;2022-12-05T01:09:14;77149.13;;;18.16;100.00
48555;BME280;34336;48.270;16.716;2022-12-05T01:11:41;77160.69;;;18.16;100.00
48555;BME280;34336;48.270;16.716;2022-12-05T01:14:09;77154.91;;;18.16;100.00
48555;BME280;34336;48.270;16.716;2022-12-05T01:16:36;77149.13;;;18.16;100.00
48555;BME280;34336;48.270;16.716;2022-12-05T01:19:04;77168.41;;;18.16;100.00
48555;BME280;34336;48.270;16.716;2022-12-05T01:21:31;77174.19;;;18.16;100.00
48555;BME280;34336;48.270;16.716;2022-12-05T01:23:58;77172.28;;;18.16;100.00
48555;BME280;34336;48.270;16.716;2022-12-05T01:26:24;77164.56;;;18.16;100.00
48555;BME280;34336;48.270;16.716;2022-12-05T01:28:51;77176.13;;;18.16;100.00
48555;BME280;34336;48.270;16.716;2022-12-05T01:33:48;77176.13;;;18.16;100.00
48555;BME280;34336;48.270;16.716;2022-12-05T01:36:15;77164.56;;;18.16;100.00
48555;BME280;34336;48.270;16.716;2022-12-05T01:38:42;77164.56;;;18.16;100.00
48555;BME280;34336;48.270;16.716;2022-12-05T01:41:19;77164.56;;;18.16;100.00
48555;BME280;34336;48.270;16.716;2022-12-05T01:46:19;77179.97;;;18.16;100.00
48555;BME280;34336;48.270;16.716;2022-12-05T01:48:45;77176.13;;;18.16;100.00
48555;BME280;34336;48.270;16.716;2022-12-05T01:51:12;77162.63;;;18.16;100.00
48555;BME280;34336;48.270;16.716;2022-12-05T01:53:39;77172.28;;;18.16;100.00
48555;BME280;34336;48.270;16.716;2022-12-05T01:56:06;77160.69;;;18.16;100.00
48555;BME280;34336;48.270;16.716;2022-12-05T01:58:34;77160.69;;;18.16;100.00
48555;BME280;34336;48.270;16.716;2022-12-05T02:01:03;77160.69;;;18.16;100.00
48555;BME280;34336;48.270;16.716;2022-12-05T02:03:29;77166.47;;;18.16;100.00
48555;BME280;34336;48.270;16.716;2022-12-05T02:05:56;77174.19;;;18.16;100.00
48555;BME280;34336;48.270;16.716;2022-12-05T02:08:26;77164.56;;;18.16;100.00
48555;BME280;34336;48.270;16.716;2022-12-05T02:10:54;77176.13;;;18.16;100.00
48555;BME280;34336;48.270;16.716;2022-12-05T02:21:13;77191.53;;;18.16;100.00
48555;BME280;34336;48.270;16.716;2022-12-05T02:29:02;77178.06;;;18.16;100.00
48555;BME280;34336;48.270;16.716;2022-12-05T02:34:09;77185.75;;;18.16;100.00
48555;BME280;34336;48.270;16.716;2022-12-05T02:37:13;77187.69;;;18.16;100.00
48555;BME280;34336;48.270;16.716;2022-12-05T02:39:36;77183.84;;;18.16;100.00
48555;BME280;34336;48.270;16.716;2022-12-05T02:42:12;77176.13;;;18.16;100.00
48555;BME280;34336;48.270;16.716;2022-12-05T02:44:51;77191.53;;;18.16;100.00
48555;BME280;34336;48.270;16.716;2022-12-05T02:47:20;77195.41;;;18.16;100.00
48555;BME280;34336;48.270;16.716;2022-12-05T02:49:48;77191.53;;;18.16;100.00
48555;BME280;34336;48.270;16.716;2022-12-05T02:52:16;77195.41;;;18.16;100.00
48555;BME280;34336;48.270;16.716;2022-12-05T02:54:43;77191.53;;;18.16;100.00
48555;BME280;34336;48.270;16.716;2022-12-05T02:57:11;77201.19;;;18.16;100.00
48555;BME280;34336;48.270;16.716;2022-12-05T02:59:38;77195.41;;;18.16;100.00
48555;BME280;34336;48.270;16.716;2022-12-05T03:02:07;77187.69;;;18.16;100.00
48555;BME280;34336;48.270;16.716;2022-12-05T03:04:33;77187.69;;;18.16;100.00
48555;BME280;34336;48.270;16.716;2022-12-05T03:07:06;77183.84;;;18.16;100.00
48555;BME280;34336;48.270;16.716;2022-12-05T03:09:45;77183.84;;;18.16;100.00
48555;BME280;34336;48.270;16.716;2022-12-05T03:12:26;77178.06;;;18.16;100.00
48555;BME280;34336;48.270;16.716;2022-12-05T03:17:24;77179.97;;;18.16;100.00
48555;BME280;34336;48.270;16.716;2022-12-05T03:19:59;77172.28;;;18.16;100.00
48555;BME280;34336;48.270;16.716;2022-12-05T03:22:39;77179.97;;;18.16;100.00
48555;BME280;34336;48.270;16.716;2022-12-05T03:25:08;77174.19;;;18.16;100.00
48555;BME280;34336;48.270;16.716;2022-12-05T03:27:48;77174.19;;;18.16;100.00
48555;BME280;34336;48.270;16.716;2022-12-05T03:30:18;77179.97;;;18.16;100.00
48555;BME280;34336;48.270;16.716;2022-12-05T03:38:15;77179.97;;;18.16;100.00
48555;BME280;34336;48.270;16.716;2022-12-05T03:46:02;77179.97;;;18.16;100.00
48555;BME280;34336;48.270;16.716;2022-12-05T03:51:12;77187.69;;;18.16;100.00
48555;BME280;34336;48.270;16.716;2022-12-05T03:53:58;77193.47;;;18.16;100.00
48555;BME280;34336;48.270;16.716;2022-12-05T03:56:34;77199.25;;;18.16;100.00
48555;BME280;34336;48.270;16.716;2022-12-05T03:59:05;77201.19;;;18.16;100.00
48555;BME280;34336;48.270;16.716;2022-12-05T04:01:32;77199.25;;;18.16;100.00
48555;BME280;34336;48.270;16.716;2022-12-05T04:04:23;77199.25;;;18.16;100.00
48555;BME280;34336;48.270;16.716;2022-12-05T04:06:48;77199.25;;;18.16;100.00
48555;BME280;34336;48.270;16.716;2022-12-05T04:09:20;77210.81;;;18.16;100.00
48555;BME280;34336;48.270;16.716;2022-12-05T04:11:51;77205.03;;;18.16;100.00
48555;BME280;34336;48.270;16.716;2022-12-05T04:14:30;77203.09;;;18.16;100.00
48555;BME280;34336;48.270;16.716;2022-12-05T04:17:00;77203.09;;;18.16;100.00
48555;BME280;34336;48.270;16.716;2022-12-05T04:19:37;77203.09;;;18.16;100.00
48555;BME280;34336;48.270;16.716;2022-12-05T04:22:24;77205.03;;;18.16;100.00
48555;BME280;34336;48.270;16.716;2022-12-05T04:24:52;77214.66;;;18.16;100.00
48555;BME280;34336;48.270;16.716;2022-12-05T04:30:06;77218.53;;;18.16;100.00
48555;BME280;34336;48.270;16.716;2022-12-05T04:32:39;77214.66;;;18.16;100.00
48555;BME280;34336;48.270;16.716;2022-12-05T04:35:11;77206.97;;;18.16;100.00
48555;BME280;34336;48.270;16.716;2022-12-05T04:37:41;77206.97;;;18.16;100.00
48555;BME280;34336;48.270;16.716;2022-12-05T04:40:11;77210.81;;;18.16;100.00
48555;BME280;34336;48.270;16.716;2022-12-05T04:42:40;77205.03;;;18.16;100.00
48555;BME280;34336;48.270;16.716;2022-12-05T04:45:09;77203.09;;;18.16;100.00
48555;BME280;34336;48.270;16.716;2022-12-05T04:47:41;77210.81;;;18.16;100.00
48555;BME280;34336;48.270;16.716;2022-12-05T04:50:09;77214.66;;;18.16;100.00
48555;BME280;34336;48.270;16.716;2022-12-05T04:52:36;77216.59;;;18.16;100.00
48555;BME280;34336;48.270;16.716;2022-12-05T04:55:26;77214.66;;;18.16;100.00
48555;BME280;34336;48.270;16.716;2022-12-05T04:57:56;77222.38;;;18.16;100.00
48555;BME280;34336;48.270;16.716;2022-12-05T05:00:26;77222.38;;;18.16;100.00
48555;BME280;34336;48.270;16.716;2022-12-05T05:02:55;77222.38;;;18.16;100.00
48555;BME280;34336;48.270;16.716;2022-12-05T05:05:24;77210.81;;;18.16;100.00
48555;BME280;34336;48.270;16.716;2022-12-05T05:07:52;77226.22;;;18.16;100.00
48555;BME280;34336;48.270;16.716;2022-12-05T05:10:22;77218.53;;;18.16;100.00
48555;BME280;34336;48.270;16.716;2022-12-05T05:12:52;77228.16;;;18.16;100.00
48555;BME280;34336;48.270;16.716;2022-12-05T05:15:19;77237.78;;;18.16;100.00
48555;BME280;34336;48.270;16.716;2022-12-05T05:17:45;77233.94;;;18.16;100.00
48555;BME280;34336;48.270;16.716;2022-12-05T05:20:12;77241.66;;;18.16;100.00
48555;BME280;34336;48.270;16.716;2022-12-05T05:22:50;77251.28;;;18.16;100.00
48555;BME280;34336;48.270;16.716;2022-12-05T05:25:18;77249.38;;;18.16;100.00
48555;BME280;34336;48.270;16.716;2022-12-05T05:27:46;77255.16;;;18.16;100.00
48555;BME280;34336;48.270;16.716;2022-12-05T05:30:13;77257.06;;;18.16;100.00
48555;BME280;34336;48.270;16.716;2022-12-05T05:32:39;77249.38;;;18.16;100.00
48555;BME280;34336;48.270;16.716;2022-12-05T05:35:06;77249.38;;;18.16;100.00
48555;BME280;34336;48.270;16.716;2022-12-05T05:37:33;77249.38;;;18.16;100.00
48555;BME280;34336;48.270;16.716;2022-12-05T05:39:59;77245.50;;;18.16;100.00
48555;BME280;34336;48.270;16.716;2022-12-05T05:42:33;77245.50;;;18.16;100.00
48555;BME280;34336;48.270;16.716;2022-12-05T05:44:59;77243.56;;;18.16;100.00
48555;BME280;34336;48.270;16.716;2022-12-05T05:47:26;77241.66;;;18.16;100.00
48555;BME280;34336;48.270;16.716;2022-12-05T05:49:52;77253.22;;;18.16;100.00
48555;BME280;34336;48.270;16.716;2022-12-05T05:52:19;77257.06;;;18.16;100.00
48555;BME280;34336;48.270;16.716;2022-12-05T05:54:46;77259.00;;;18.16;100.00
48555;BME280;34336;48.270;16.716;2022-12-05T05:57:12;77260.94;;;18.16;100.00
48555;BME280;34336;48.270;16.716;2022-12-05T05:59:45;77260.94;;;18.16;100.00
48555;BME280;34336;48.270;16.716;2022-12-05T06:02:12;77262.84;;;18.16;100.00
48555;BME280;34336;48.270;16.716;2022-12-05T06:04:38;77264.78;;;18.16;100.00
48555;BME280;34336;48.270;16.716;2022-12-05T06:07:05;77260.94;;;18.16;100.00
48555;BME280;34336;48.270;16.716;2022-12-05T06:09:32;77268.63;;;18.16;100.00
48555;BME280;34336;48.270;16.716;2022-12-05T06:11:58;77266.72;;;18.16;100.00
48555;BME280;34336;48.270;16.716;2022-12-05T06:14:25;77268.63;;;18.16;100.00
48555;BME280;34336;48.270;16.716;2022-12-05T06:16:52;77276.34;;;18.16;100.00
48555;BME280;34336;48.270;16.716;2022-12-05T06:19:18;77270.56;;;18.16;100.00
48555;BME280;34336;48.270;16.716;2022-12-05T06:21:47;77270.56;;;18.16;100.00
48555;BME280;34336;48.270;16.716;2022-12-05T06:24:13;77276.34;;;18.16;100.00
48555;BME280;34336;48.270;16.716;2022-12-05T06:26:40;77280.19;;;18.16;100.00
48555;BME280;34336;48.270;16.716;2022-12-05T06:29:07;77278.28;;;18.16;100.00
48555;BME280;34336;48.270;16.716;2022-12-05T06:31:33;77274.41;;;18.16;100.00
48555;BME280;34336;48.270;16.716;2022-12-05T06:34:00;77276.34;;;18.16;100.00
48555;BME280;34336;48.270;16.716;2022-12-05T06:36:28;77272.50;;;18.16;100.00
48555;BME280;34336;48.270;16.716;2022-12-05T06:38:57;77284.06;;;18.16;100.00
48555;BME280;34336;48.270;16.716;2022-12-05T06:41:24;77285.97;;;18.16;100.00
48555;BME280;34336;48.270;16.716;2022-12-05T06:43:51;77295.63;;;18.16;100.00
48555;BME280;34336;48.270;16.716;2022-12-05T06:46:25;77295.63;;;18.16;100.00
48555;BME280;34336;48.270;16.716;2022-12-05T06:48:52;77299.47;;;18.16;100.00
48555;BME280;34336;48.270;16.716;2022-12-05T06:51:19;77301.41;;;18.16;100.00
48555;BME280;34336;48.270;16.716;2022-12-05T06:53:45;77311.03;;;18.16;100.00
48555;BME280;34336;48.270;16.716;2022-12-05T06:56:13;77311.03;;;18.16;100.00
48555;BME280;34336;48.270;16.716;2022-12-05T06:58:41;77314.91;;;18.16;100.00
48555;BME280;34336;48.270;16.716;2022-12-05T07:01:15;77318.75;;;18.16;100.00
48555;BME280;34336;48.270;16.716;2022-12-05T07:04:00;77334.16;;;18.16;100.00
48555;BME280;34336;48.270;16.716;2022-12-05T07:06:27;77339.94;;;18.16;100.00
48555;BME280;34336;48.270;16.716;2022-12-05T07:08:54;77343.81;;;18.16;100.00
48555;BME280;34336;48.270;16.716;2022-12-05T07:11:20;77336.09;;;18.16;100.00
48555;BME280;34336;48.270;16.716;2022-12-05T07:13:47;77338.03;;;18.16;100.00
48555;BME280;34336;48.270;16.716;2022-12-05T07:16:14;77338.03;;;18.16;100.00
48555;BME280;34336;48.270;16.716;2022-12-05T07:18:40;77339.94;;;18.16;100.00
48555;BME280;34336;48.270;16.716;2022-12-05T07:21:09;77343.81;;;18.16;100.00
48555;BME280;34336;48.270;16.716;2022-12-05T07:23:38;77349.59;;;18.16;100.00
48555;BME280;34336;48.270;16.716;2022-12-05T07:26:06;77345.72;;;18.16;100.00
48555;BME280;34336;48.270;16.716;2022-12-05T07:28:33;77349.59;;;18.16;100.00
48555;BME280;34336;48.270;16.716;2022-12-05T07:31:03;77341.88;;;18.16;100.00
48555;BME280;34336;48.270;16.716;2022-12-05T07:33:30;77345.72;;;18.16;100.00
48555;BME280;34336;48.270;16.716;2022-12-05T07:36:00;77345.72;;;18.16;100.00
48555;BME280;34336;48.270;16.716;2022-12-05T07:38:27;77345.72;;;18.16;100.00
48555;BME280;34336;48.270;16.716;2022-12-05T07:40:54;77345.72;;;18.16;100.00
48555;BME280;34336;48.270;16.716;2022-12-05T07:43:21;77349.59;;;18.16;100.00
48555;BME280;34336;48.270;16.716;2022-12-05T07:45:47;77349.59;;;18.16;100.00
48555;BME280;34336;48.270;16.716;2022-12-05T07:48:14;77349.59;;;18.16;100.00
48555;BME280;34336;48.270;16.716;2022-12-05T07:50:44;77345.72;;;18.16;100.00
48555;BME280;34336;48.270;16.716;2022-12-05T07:53:11;77345.72;;;18.16;100.00
48555;BME280;34336;48.270;16.716;2022-12-05T07:55:37;77343.81;;;18.16;100.00
48555;BME280;34336;48.270;16.716;2022-12-05T07:58:04;77345.72;;;18.16;100.00
48555;BME280;34336;48.270;16.716;2022-12-05T08:00:31;77349.59;;;18.16;100.00
48555;BME280;34336;48.270;16.716;2022-12-05T08:02:57;77341.88;;;18.16;100.00
48555;BME280;34336;48.270;16.716;2022-12-05T08:05:24;77334.16;;;18.16;100.00
48555;BME280;34336;48.270;16.716;2022-12-05T08:07:51;77338.03;;;18.16;100.00
48555;BME280;34336;48.270;16.716;2022-12-05T08:10:17;77328.38;;;18.16;100.00
48555;BME280;34336;48.270;16.716;2022-12-05T08:12:44;77330.31;;;18.16;100.00
48555;BME280;34336;48.270;16.716;2022-12-05T08:15:10;77326.47;;;18.16;100.00
48555;BME280;34336;48.270;16.716;2022-12-05T08:17:37;77326.47;;;18.16;100.00
48555;BME280;34336;48.270;16.716;2022-12-05T08:20:04;77322.59;;;18.16;100.00
48555;BME280;34336;48.270;16.716;2022-12-05T08:22:34;77322.59;;;18.16;100.00
48555;BME280;34336;48.270;16.716;2022-12-05T08:25:00;77324.53;;;18.16;100.00
48555;BME280;34336;48.270;16.716;2022-12-05T08:27:27;77318.75;;;18.16;100.00
48555;BME280;34336;48.270;16.716;2022-12-05T08:29:53;77318.75;;;18.16;100.00
48555;BME280;34336;48.270;16.716;2022-12-05T08:32:20;77326.47;;;18.16;100.00
48555;BME280;34336;48.270;16.716;2022-12-05T08:34:47;77330.31;;;18.16;100.00
48555;BME280;34336;48.270;16.716;2022-12-05T08:37:14;77330.31;;;18.16;100.00
48555;BME280;34336;48.270;16.716;2022-12-05T08:39:40;77330.31;;;18.16;100.00
48555;BME280;34336;48.270;16.716;2022-12-05T08:42:07;77334.16;;;18.16;100.00
48555;BME280;34336;48.270;16.716;2022-12-05T08:44:34;77338.03;;;18.16;100.00
48555;BME280;34336;48.270;16.716;2022-12-05T08:47:00;77341.88;;;18.16;100.00
48555;BME280;34336;48.270;16.716;2022-12-05T08:49:27;77349.59;;;18.16;100.00
48555;BME280;34336;48.270;16.716;2022-12-05T08:51:53;77339.94;;;18.16;100.00
48555;BME280;34336;48.270;16.716;2022-12-05T08:54:20;77345.72;;;18.16;100.00
48555;BME280;34336;48.270;16.716;2022-12-05T08:56:49;77349.59;;;18.16;100.00
48555;BME280;34336;48.270;16.716;2022-12-05T08:59:15;77347.66;;;18.16;100.00
48555;BME280;34336;48.270;16.716;2022-12-05T09:01:42;77349.59;;;18.16;100.00
48555;BME280;34336;48.270;16.716;2022-12-05T09:04:08;77347.66;;;18.16;100.00
48555;BME280;34336;48.270;16.716;2022-12-05T09:06:35;77345.72;;;18.16;100.00
48555;BME280;34336;48.270;16.716;2022-12-05T09:09:03;77347.66;;;18.16;100.00
48555;BME280;34336;48.270;16.716;2022-12-05T09:11:31;77341.88;;;18.16;100.00
48555;BME280;34336;48.270;16.716;2022-12-05T09:13:59;77345.72;;;18.16;100.00
48555;BME280;34336;48.270;16.716;2022-12-05T09:16:29;77341.88;;;18.16;100.00
48555;BME280;34336;48.270;16.716;2022-12-05T09:19:08;77345.72;;;18.16;100.00
48555;BME280;34336;48.270;16.716;2022-12-05T09:21:36;77339.94;;;18.16;100.00
48555;BME280;34336;48.270;16.716;2022-12-05T09:24:02;77338.03;;;18.16;100.00
48555;BME280;34336;48.270;16.716;2022-12-05T09:26:29;77336.09;;;18.16;100.00
48555;BME280;34336;48.270;16.716;2022-12-05T09:28:56;77330.31;;;18.16;100.00
48555;BME280;34336;48.270;16.716;2022-12-05T09:31:24;77330.31;;;18.16;100.00
48555;BME280;34336;48.270;16.716;2022-12-05T09:33:52;77324.53;;;18.16;100.00
48555;BME280;34336;48.270;16.716;2022-12-05T09:36:20;77330.31;;;18.16;100.00
48555;BME280;34336;48.270;16.716;2022-12-05T09:38:48;77336.09;;;18.16;100.00
48555;BME280;34336;48.270;16.716;2022-12-05T09:43:57;77334.16;;;18.16;100.00
48555;BME280;34336;48.270;16.716;2022-12-05T09:46:33;77332.25;;;18.16;100.00
48555;BME280;34336;48.270;16.716;2022-12-05T09:49:07;77332.25;;;18.16;100.00
48555;BME280;34336;48.270;16.716;2022-12-05T09:51:34;77334.16;;;18.16;100.00
48555;BME280;34336;48.270;16.716;2022-12-05T09:54:06;77322.59;;;18.16;100.00
48555;BME280;34336;48.270;16.716;2022-12-05T09:56:33;77326.47;;;18.16;100.00
48555;BME280;34336;48.270;16.716;2022-12-05T09:59:00;77322.59;;;18.16;100.00
48555;BME280;34336;48.270;16.716;2022-12-05T10:14:50;77345.72;;;18.16;100.00
48555;BME280;34336;48.270;16.716;2022-12-05T10:17:25;77345.72;;;18.16;100.00
48555;BME280;34336;48.270;16.716;2022-12-05T10:19:52;77349.59;;;18.16;100.00
48555;BME280;34336;48.270;16.716;2022-12-05T10:22:23;77341.88;;;18.16;100.00
48555;BME280;34336;48.270;16.716;2022-12-05T10:24:53;77328.38;;;18.16;100.00
48555;BME280;34336;48.270;16.716;2022-12-05T10:27:37;77334.16;;;18.16;100.00
48555;BME280;34336;48.270;16.716;2022-12-05T10:32:40;77343.81;;;18.16;100.00
48555;BME280;34336;48.270;16.716;2022-12-05T10:37:45;77341.88;;;18.16;100.00
48555;BME280;34336;48.270;16.716;2022-12-05T10:40:13;77338.03;;;18.16;100.00
48555;BME280;34336;48.270;16.716;2022-12-05T10:42:40;77341.88;;;18.16;100.00
48555;BME280;34336;48.270;16.716;2022-12-05T10:45:12;77353.44;;;18.16;100.00
48555;BME280;34336;48.270;16.716;2022-12-05T10:47:39;77353.44;;;18.16;100.00
48555;BME280;34336;48.270;16.716;2022-12-05T10:50:12;77345.72;;;18.16;100.00
48555;BME280;34336;48.270;16.716;2022-12-05T10:52:43;77341.88;;;18.16;100.00
48555;BME280;34336;48.270;16.716;2022-12-05T10:55:12;77355.38;;;18.16;100.00
48555;BME280;34336;48.270;16.716;2022-12-05T10:57:39;77349.59;;;18.16;100.00
48555;BME280;34336;48.270;16.716;2022-12-05T11:00:12;77351.50;;;18.16;100.00
48555;BME280;34336;48.270;16.716;2022-12-05T11:02:40;77349.59;;;18.16;100.00
48555;BME280;34336;48.270;16.716;2022-12-05T11:05:08;77347.66;;;18.16;100.00
48555;BME280;34336;48.270;16.716;2022-12-05T11:07:37;77349.59;;;18.16;100.00
48555;BME280;34336;48.270;16.716;2022-12-05T11:12:57;77353.44;;;18.16;100.00
48555;BME280;34336;48.270;16.716;2022-12-05T11:15:25;77349.59;;;18.16;100.00
48555;BME280;34336;48.270;16.716;2022-12-05T11:17:54;77347.66;;;18.16;100.00
48555;BME280;34336;48.270;16.716;2022-12-05T11:22:48;77338.03;;;18.16;100.00
48555;BME280;34336;48.270;16.716;2022-12-05T11:25:28;77334.16;;;18.16;100.00
48555;BME280;34336;48.270;16.716;2022-12-05T11:27:59;77326.47;;;18.16;100.00
48555;BME280;34336;48.270;16.716;2022-12-05T11:30:27;77326.47;;;18.16;100.00
48555;BME280;34336;48.270;16.716;2022-12-05T11:33:29;77324.53;;;18.16;100.00
48555;BME280;34336;48.270;16.716;2022-12-05T11:35:48;77326.47;;;18.16;100.00
48555;BME280;34336;48.270;16.716;2022-12-05T11:38:18;77322.59;;;18.16;100.00
48555;BME280;34336;48.270;16.716;2022-12-05T11:40:49;77316.81;;;18.16;100.00
48555;BME280;34336;48.270;16.716;2022-12-05T11:48:36;77307.19;;;18.16;100.00
48555;BME280;34336;48.270;16.716;2022-12-05T12:01:25;77299.47;;;18.16;100.00
48555;BME280;34336;48.270;16.716;2022-12-05T12:09:11;77291.75;;;18.16;100.00
48555;BME280;34336;48.270;16.716;2022-12-05T12:11:45;77291.75;;;18.16;100.00
48555;BME280;34336;48.270;16.716;2022-12-05T12:19:49;77285.97;;;18.16;100.00
48555;BME280;34336;48.270;16.716;2022-12-05T12:30:03;77264.78;;;18.16;100.00
48555;BME280;34336;48.270;16.716;2022-12-05T12:32:38;77253.22;;;18.16;100.00
48555;BME280;34336;48.270;16.716;2022-12-05T12:43:18;77230.09;;;18.16;100.00
48555;BME280;34336;48.270;16.716;2022-12-05T12:46:13;77230.09;;;18.16;100.00
48555;BME280;34336;48.270;16.716;2022-12-05T12:51:13;77233.94;;;18.16;100.00
48555;BME280;34336;48.270;16.716;2022-12-05T12:57:23;77241.66;;;18.16;100.00
48555;BME280;34336;48.270;16.716;2022-12-05T12:59:34;77245.50;;;18.16;100.00
48555;BME280;34336;48.270;16.716;2022-12-05T13:04:57;77245.50;;;18.16;100.00
48555;BME280;34336;48.270;16.716;2022-12-05T13:10:01;77247.44;;;18.16;100.00
48555;BME280;34336;48.270;16.716;2022-12-05T13:12:29;77243.56;;;18.16;100.00
48555;BME280;34336;48.270;16.716;2022-12-05T13:15:04;77241.66;;;18.16;100.00
48555;BME280;34336;48.270;16.716;2022-12-05T13:17:32;77245.50;;;18.16;100.00
48555;BME280;34336;48.270;16.716;2022-12-05T13:19:59;77241.66;;;18.16;100.00
48555;BME280;34336;48.270;16.716;2022-12-05T13:22:26;77235.88;;;18.16;100.00
48555;BME280;34336;48.270;16.716;2022-12-05T13:24:53;77235.88;;;18.16;100.00
48555;BME280;34336;48.270;16.716;2022-12-05T13:27:24;77239.72;;;18.16;100.00
48555;BME280;34336;48.270;16.716;2022-12-05T13:29:57;77241.66;;;18.16;100.00
48555;BME280;34336;48.270;16.716;2022-12-05T13:32:31;77249.38;;;18.16;100.00
48555;BME280;34336;48.270;16.716;2022-12-05T13:35:15;77249.38;;;18.16;100.00
48555;BME280;34336;48.270;16.716;2022-12-05T13:37:44;77243.56;;;18.16;100.00
48555;BME280;34336;48.270;16.716;2022-12-05T13:40:31;77247.44;;;18.16;100.00
48555;BME280;34336;48.270;16.716;2022-12-05T13:43:18;77245.50;;;18.16;100.00
48555;BME280;34336;48.270;16.716;2022-12-05T13:45:56;77243.56;;;18.16;100.00
48555;BME280;34336;48.270;16.716;2022-12-05T13:48:25;77253.22;;;18.16;100.00
48555;BME280;34336;48.270;16.716;2022-12-05T13:50:57;77249.38;;;18.16;100.00
48555;BME280;34336;48.270;16.716;2022-12-05T14:00:47;77253.22;;;18.16;100.00
48555;BME280;34336;48.270;16.716;2022-12-05T14:06:00;77247.44;;;18.16;100.00
48555;BME280;34336;48.270;16.716;2022-12-05T14:15:51;77245.50;;;18.16;100.00
48555;BME280;34336;48.270;16.716;2022-12-05T14:21:09;77251.28;;;18.16;100.00
48555;BME280;34336;48.270;16.716;2022-12-05T14:23:44;77245.50;;;18.16;100.00
48555;BME280;34336;48.270;16.716;2022-12-05T14:31:44;77241.66;;;18.16;100.00
48555;BME280;34336;48.270;16.716;2022-12-05T14:39:31;77222.38;;;18.16;100.00
48555;BME280;34336;48.270;16.716;2022-12-05T14:41:59;77220.44;;;18.16;100.00
48555;BME280;34336;48.270;16.716;2022-12-05T14:44:26;77222.38;;;18.16;100.00
48555;BME280;34336;48.270;16.716;2022-12-05T14:47:00;77218.53;;;18.16;100.00
48555;BME280;34336;48.270;16.716;2022-12-05T14:52:10;77226.22;;;18.16;100.00
48555;BME280;34336;48.270;16.716;2022-12-05T14:54:37;77228.16;;;18.16;100.00
48555;BME280;34336;48.270;16.716;2022-12-05T14:57:10;77232.00;;;18.16;100.00
48555;BME280;34336;48.270;16.716;2022-12-05T14:59:42;77233.94;;;18.16;100.00
48555;BME280;34336;48.270;16.716;2022-12-05T15:02:15;77237.78;;;18.16;100.00
48555;BME280;34336;48.270;16.716;2022-12-05T15:07:34;77241.66;;;18.16;100.00
48555;BME280;34336;48.270;16.716;2022-12-05T15:12:54;77249.38;;;18.16;100.00
48555;BME280;34336;48.270;16.716;2022-12-05T15:18:15;77264.78;;;18.16;100.00
48555;BME280;34336;48.270;16.716;2022-12-05T15:23:52;77274.41;;;18.16;100.00
48555;BME280;34336;48.270;16.716;2022-12-05T15:26:25;77272.50;;;18.16;100.00
48555;BME280;34336;48.270;16.716;2022-12-05T15:34:16;77272.50;;;18.16;100.00
48555;BME280;34336;48.270;16.716;2022-12-05T15:36:47;77272.50;;;18.16;100.00
48555;BME280;34336;48.270;16.716;2022-12-05T15:39:19;77276.34;;;18.16;100.00
48555;BME280;34336;48.270;16.716;2022-12-05T15:41:49;77280.19;;;18.16;100.00